Hammond, Wisconsin
Current Conditions -  °F | °C
As of 2:15 AM on Tuesday 27 Jan 2015 (Local Time) from KRNH Reporting Station
Overcast Overcast  
Wind Chill: 26°   Ceiling: 2100
Heat Index: 32°   Visibility: 10mi
Dew Point: 26°   Wind: 7mph
Humidity: 79%   Direction: 30°NNE
Pressure: 30.04"   Gusts: NA
Location:  44.98°N, 92.44°W
Report Text: KRNH 270815Z AUTO 03006KT 10SM OVC021 00/M03 A3004 RMK AO2 T00001033
Loading
Personal Weather Stations






























Interactive Weather Map New forecast layout! Learn more

10-Day Weather Forecast

Advertisements
Track Severe Weather on mobile